createdAt,value
2023-05-21T00:00:08.204Z,1017.20
2023-05-21T00:01:08.156Z,1017.16
2023-05-21T00:02:08.112Z,1017.18
2023-05-21T00:03:08.062Z,1017.14
2023-05-21T00:04:07.960Z,1017.14
2023-05-21T00:05:07.893Z,1017.14
2023-05-21T00:06:07.924Z,1017.18
2023-05-21T00:07:07.769Z,1017.17
2023-05-21T00:08:07.710Z,1017.17
2023-05-21T00:09:07.686Z,1017.19
2023-05-21T00:10:07.594Z,1017.15
2023-05-21T00:11:07.535Z,1017.20
2023-05-21T00:12:07.457Z,1017.17
2023-05-21T00:13:07.388Z,1017.13
2023-05-21T00:14:07.341Z,1017.16
2023-05-21T00:15:07.270Z,1017.15
2023-05-21T00:16:07.226Z,1017.17
2023-05-21T00:17:07.140Z,1017.14
2023-05-21T00:18:07.093Z,1017.12
2023-05-21T00:19:07.063Z,1017.13
2023-05-21T00:20:06.957Z,1017.10
2023-05-21T00:21:06.882Z,1017.17
2023-05-21T00:22:06.819Z,1017.15
2023-05-21T00:23:06.767Z,1017.17
2023-05-21T00:24:06.686Z,1017.14
2023-05-21T00:25:06.627Z,1017.17
2023-05-21T00:26:06.570Z,1017.19
2023-05-21T00:27:06.525Z,1017.19
2023-05-21T00:28:06.452Z,1017.20
2023-05-21T00:29:06.429Z,1017.12
2023-05-21T00:30:06.315Z,1017.12
2023-05-21T00:31:06.253Z,1017.11
2023-05-21T00:32:06.342Z,1017.10
2023-05-21T00:33:06.232Z,1017.10
2023-05-21T00:34:06.052Z,1017.08
2023-05-21T00:35:06.044Z,1017.14
2023-05-21T00:36:06.006Z,1017.12
2023-05-21T00:37:05.893Z,1017.09
2023-05-21T00:38:05.810Z,1017.04
2023-05-21T00:39:05.755Z,1017.10
2023-05-21T00:40:05.709Z,1017.07
2023-05-21T00:41:05.670Z,1017.06
2023-05-21T00:42:05.564Z,1017.10
2023-05-21T00:43:05.521Z,1017.09
2023-05-21T00:44:05.427Z,1017.08
2023-05-21T00:45:05.379Z,1017.12
2023-05-21T00:46:05.323Z,1017.13
2023-05-21T00:47:05.250Z,1017.08
2023-05-21T00:48:05.271Z,1017.08
2023-05-21T00:49:05.127Z,1017.10
2023-05-21T00:50:05.060Z,1017.11
2023-05-21T00:51:04.991Z,1017.07
2023-05-21T00:52:04.948Z,1017.03
2023-05-21T00:53:04.883Z,1017.04
2023-05-21T00:54:04.812Z,1017.01
2023-05-21T00:55:04.779Z,1017.00
2023-05-21T00:56:04.693Z,1017.02
2023-05-21T00:57:04.613Z,1017.01
2023-05-21T00:58:04.554Z,1017.03
2023-05-21T00:59:04.512Z,1016.99
2023-05-21T01:00:04.440Z,1016.97
2023-05-21T01:01:04.383Z,1016.96
2023-05-21T01:02:04.383Z,1016.97
2023-05-21T01:03:04.417Z,1016.97
2023-05-21T01:04:04.171Z,1016.95
2023-05-21T01:05:04.116Z,1016.93
2023-05-21T01:06:04.084Z,1016.94
2023-05-21T01:07:04.007Z,1016.87
2023-05-21T01:08:03.944Z,1016.87
2023-05-21T01:09:05.048Z,1016.81
2023-05-21T01:10:03.856Z,1016.89
2023-05-21T01:11:03.754Z,1016.88
2023-05-21T01:12:03.685Z,1016.85
2023-05-21T01:13:03.623Z,1016.87
2023-05-21T01:14:03.561Z,1016.88
2023-05-21T01:15:03.501Z,1016.84
2023-05-21T01:16:03.438Z,1016.79
2023-05-21T01:17:03.386Z,1016.82
2023-05-21T01:18:03.330Z,1016.75
2023-05-21T01:19:03.371Z,1016.74
2023-05-21T01:20:03.195Z,1016.74
2023-05-21T01:21:03.139Z,1016.69
2023-05-21T01:22:03.049Z,1016.80
2023-05-21T01:23:02.994Z,1016.73
2023-05-21T01:24:02.972Z,1016.69
2023-05-21T01:25:03.003Z,1016.68
2023-05-21T01:26:02.815Z,1016.69
2023-05-21T01:27:02.742Z,1016.70
2023-05-21T01:28:02.694Z,1016.71
2023-05-21T01:29:02.609Z,1016.71
2023-05-21T01:30:02.572Z,1016.72
2023-05-21T01:31:02.499Z,1016.70
2023-05-21T01:32:02.428Z,1016.69
2023-05-21T01:33:02.485Z,1016.67
2023-05-21T01:34:02.490Z,1016.70
2023-05-21T01:35:02.236Z,1016.64
2023-05-21T01:36:02.177Z,1016.66
2023-05-21T01:37:02.126Z,1016.67
2023-05-21T01:38:02.064Z,1016.67
2023-05-21T01:39:02.090Z,1016.66
2023-05-21T01:40:01.933Z,1016.69
2023-05-21T01:41:01.868Z,1016.69
2023-05-21T01:42:01.822Z,1016.66
2023-05-21T01:43:01.786Z,1016.73
2023-05-21T01:44:01.724Z,1016.68
2023-05-21T01:45:01.650Z,1016.67
2023-05-21T01:46:01.602Z,1016.65
2023-05-21T01:47:01.505Z,1016.65
2023-05-21T01:48:01.544Z,1016.66
2023-05-21T01:49:01.382Z,1016.65
2023-05-21T01:50:01.319Z,1016.67
2023-05-21T01:51:01.259Z,1016.62
2023-05-21T01:52:01.200Z,1016.62
2023-05-21T01:53:01.249Z,1016.63
2023-05-21T01:54:01.078Z,1016.66
2023-05-21T01:55:01.010Z,1016.61
2023-05-21T01:56:00.959Z,1016.57
2023-05-21T01:57:00.891Z,1016.68
2023-05-21T01:58:02.225Z,1016.63
2023-05-21T01:59:00.748Z,1016.62
2023-05-21T02:00:00.698Z,1016.59
2023-05-21T02:01:00.640Z,1016.59
2023-05-21T02:02:00.603Z,1016.60
2023-05-21T02:03:00.591Z,1016.57
2023-05-21T02:04:00.542Z,1016.58
2023-05-21T02:05:00.400Z,1016.57
2023-05-21T02:06:00.341Z,1016.55
2023-05-21T02:07:00.259Z,1016.55
2023-05-21T02:08:00.258Z,1016.51
2023-05-21T02:09:00.181Z,1016.56
2023-05-21T02:10:00.090Z,1016.57
2023-05-21T02:11:00.016Z,1016.54
2023-05-21T02:12:00.056Z,1016.55
2023-05-21T02:12:59.886Z,1016.49
2023-05-21T02:13:59.836Z,1016.53
2023-05-21T02:14:59.794Z,1016.47
2023-05-21T02:15:59.723Z,1016.45
2023-05-21T02:16:59.681Z,1016.42
2023-05-21T02:17:59.637Z,1016.41
2023-05-21T02:18:59.518Z,1016.44
2023-05-21T02:19:59.444Z,1016.40
2023-05-21T02:20:59.396Z,1016.39
2023-05-21T02:21:59.354Z,1016.35
2023-05-21T02:22:59.271Z,1016.35
2023-05-21T02:23:59.204Z,1016.37
2023-05-21T02:24:59.132Z,1016.34
2023-05-21T02:25:59.107Z,1016.33
2023-05-21T02:26:59.009Z,1016.29
2023-05-21T02:27:58.986Z,1016.28
2023-05-21T02:28:58.894Z,1016.31
2023-05-21T02:29:58.817Z,1016.32
2023-05-21T02:30:58.767Z,1016.34
2023-05-21T02:31:58.725Z,1016.34
2023-05-21T02:32:58.705Z,1016.31
2023-05-21T02:33:58.674Z,1016.34
2023-05-21T02:34:58.521Z,1016.37
2023-05-21T02:35:58.471Z,1016.36
2023-05-21T02:36:58.388Z,1016.32
2023-05-21T02:37:58.341Z,1016.35
2023-05-21T02:38:58.295Z,1016.34
2023-05-21T02:39:58.209Z,1016.31
2023-05-21T02:40:58.131Z,1016.31
2023-05-21T02:41:58.078Z,1016.31
2023-05-21T02:42:58.032Z,1016.33
2023-05-21T02:43:57.955Z,1016.32
2023-05-21T02:44:57.895Z,1016.31
2023-05-21T02:45:57.892Z,1016.27
2023-05-21T02:46:57.769Z,1016.31
2023-05-21T02:47:57.763Z,1016.32
2023-05-21T02:48:57.637Z,1016.26
2023-05-21T02:49:57.598Z,1016.26
2023-05-21T02:50:57.519Z,1016.30
2023-05-21T02:51:57.481Z,1016.26
2023-05-21T02:52:57.445Z,1016.21
2023-05-21T02:53:57.365Z,1016.27
2023-05-21T02:54:57.271Z,1016.21
2023-05-21T02:55:57.205Z,1016.25
2023-05-21T02:56:57.152Z,1016.24
2023-05-21T02:57:57.093Z,1016.26
2023-05-21T02:58:57.028Z,1016.17
2023-05-21T02:59:56.964Z,1016.17
2023-05-21T03:00:56.919Z,1016.23
2023-05-21T03:01:56.822Z,1016.25
2023-05-21T03:02:56.857Z,1016.26
2023-05-21T03:03:56.696Z,1016.23
2023-05-21T03:04:56.634Z,1016.22
2023-05-21T03:05:56.577Z,1016.19
2023-05-21T03:06:56.525Z,1016.18
2023-05-21T03:07:56.463Z,1016.14
2023-05-21T03:08:56.398Z,1016.16
2023-05-21T03:09:56.342Z,1016.16
2023-05-21T03:10:56.264Z,1016.17
2023-05-21T03:11:56.203Z,1016.15
2023-05-21T03:12:56.157Z,1016.17
2023-05-21T03:13:56.072Z,1016.13
2023-05-21T03:14:56.004Z,1016.11
2023-05-21T03:15:55.944Z,1016.17
2023-05-21T03:16:55.925Z,1016.16
2023-05-21T03:17:55.925Z,1016.17
2023-05-21T03:18:55.781Z,1016.15
2023-05-21T03:19:55.710Z,1016.11
2023-05-21T03:20:55.645Z,1016.13
2023-05-21T03:21:55.581Z,1016.16
2023-05-21T03:22:55.525Z,1016.12
2023-05-21T03:23:55.464Z,1016.19
2023-05-21T03:24:55.398Z,1016.18
2023-05-21T03:25:55.342Z,1016.18
2023-05-21T03:26:55.261Z,1016.20
2023-05-21T03:27:55.195Z,1016.18
2023-05-21T03:28:55.132Z,1016.20
2023-05-21T03:29:55.094Z,1016.22
2023-05-21T03:30:55.008Z,1016.19
2023-05-21T03:31:55.020Z,1016.15
2023-05-21T03:32:54.942Z,1016.18
2023-05-21T03:33:54.851Z,1016.21
2023-05-21T03:34:54.756Z,1016.22
2023-05-21T03:35:54.697Z,1016.28
2023-05-21T03:36:54.643Z,1016.24
2023-05-21T03:37:54.572Z,1016.20
2023-05-21T03:38:54.511Z,1016.24
2023-05-21T03:39:54.467Z,1016.23
2023-05-21T03:40:54.371Z,1016.24
2023-05-21T03:41:54.320Z,1016.19
2023-05-21T03:42:54.249Z,1016.23
2023-05-21T03:43:54.200Z,1016.27
2023-05-21T03:44:54.134Z,1016.24
2023-05-21T03:45:54.080Z,1016.33
2023-05-21T03:46:54.014Z,1016.29
2023-05-21T03:47:54.039Z,1016.33
2023-05-21T03:48:53.876Z,1016.32
2023-05-21T03:49:53.819Z,1016.26
2023-05-21T03:50:53.750Z,1016.32
2023-05-21T03:51:53.725Z,1016.26
2023-05-21T03:52:53.643Z,1016.29
2023-05-21T03:53:53.579Z,1016.28
2023-05-21T03:54:53.506Z,1016.29
2023-05-21T03:55:53.437Z,1016.21
2023-05-21T03:56:53.396Z,1016.21
2023-05-21T03:57:53.319Z,1016.19
2023-05-21T03:58:53.267Z,1016.20
2023-05-21T03:59:53.229Z,1016.20
2023-05-21T04:00:53.119Z,1016.26
2023-05-21T04:01:53.054Z,1016.26
2023-05-21T04:02:53.075Z,1016.22
2023-05-21T04:03:53.130Z,1016.27
2023-05-21T04:04:52.965Z,1016.27
2023-05-21T04:05:52.815Z,1016.29
2023-05-21T04:06:52.748Z,1016.29
2023-05-21T04:07:52.675Z,1016.28
2023-05-21T04:08:52.656Z,1016.25
2023-05-21T04:09:52.564Z,1016.32
2023-05-21T04:10:52.489Z,1016.32
2023-05-21T04:11:52.422Z,1016.29
2023-05-21T04:12:52.379Z,1016.29
2023-05-21T04:13:52.299Z,1016.27
2023-05-21T04:14:52.250Z,1016.35
2023-05-21T04:15:52.200Z,1016.29
2023-05-21T04:16:52.117Z,1016.26
2023-05-21T04:17:52.123Z,1016.27
2023-05-21T04:18:52.081Z,1016.25
2023-05-21T04:19:51.922Z,1016.26
2023-05-21T04:20:51.869Z,1016.27
2023-05-21T04:21:51.855Z,1016.32
2023-05-21T04:22:51.745Z,1016.27
2023-05-21T04:23:51.675Z,1016.29
2023-05-21T04:24:51.634Z,1016.31
2023-05-21T04:25:51.546Z,1016.29
2023-05-21T04:26:51.482Z,1016.36
2023-05-21T04:27:51.431Z,1016.31
2023-05-21T04:28:51.387Z,1016.32
2023-05-21T04:29:51.302Z,1016.34
2023-05-21T04:30:51.313Z,1016.35
2023-05-21T04:31:51.343Z,1016.33
2023-05-21T04:32:51.134Z,1016.34
2023-05-21T04:33:51.064Z,1016.36
2023-05-21T04:34:51.013Z,1016.36
2023-05-21T04:35:50.923Z,1016.41
2023-05-21T04:36:50.853Z,1016.35
2023-05-21T04:37:50.799Z,1016.38
2023-05-21T04:38:50.728Z,1016.41
2023-05-21T04:39:50.660Z,1016.38
2023-05-21T04:40:50.647Z,1016.45
2023-05-21T04:41:50.542Z,1016.45
2023-05-21T04:42:50.485Z,1016.41
2023-05-21T04:43:50.410Z,1016.41
2023-05-21T04:44:50.347Z,1016.41
2023-05-21T04:45:50.283Z,1016.44
2023-05-21T04:46:50.270Z,1016.43
2023-05-21T04:47:50.200Z,1016.44
2023-05-21T04:48:50.099Z,1016.45
2023-05-21T04:49:50.049Z,1016.45
2023-05-21T04:50:49.971Z,1016.40
2023-05-21T04:51:49.916Z,1016.42
2023-05-21T04:52:49.837Z,1016.43
2023-05-21T04:53:49.797Z,1016.44
2023-05-21T04:54:49.720Z,1016.48
2023-05-21T04:55:49.658Z,1016.49
2023-05-21T04:56:49.590Z,1016.48
2023-05-21T04:57:49.522Z,1016.46
2023-05-21T04:58:49.498Z,1016.46
2023-05-21T04:59:49.399Z,1016.45
2023-05-21T05:00:49.435Z,1016.47
2023-05-21T05:01:49.274Z,1016.47
2023-05-21T05:02:49.357Z,1016.45
2023-05-21T05:03:49.178Z,1016.45
2023-05-21T05:04:49.096Z,1016.49
2023-05-21T05:05:49.022Z,1016.48
2023-05-21T05:06:48.989Z,1016.48
2023-05-21T05:07:48.934Z,1016.47
2023-05-21T05:08:48.851Z,1016.49
2023-05-21T05:09:48.768Z,1016.48
2023-05-21T05:10:48.705Z,1016.49
2023-05-21T05:11:48.658Z,1016.49
2023-05-21T05:12:48.607Z,1016.52
2023-05-21T05:13:48.525Z,1016.55
2023-05-21T05:14:48.464Z,1016.52
2023-05-21T05:15:49.883Z,1016.53
2023-05-21T05:16:48.443Z,1016.53
2023-05-21T05:17:48.335Z,1016.47
2023-05-21T05:18:48.286Z,1016.46
2023-05-21T05:19:48.143Z,1016.53
2023-05-21T05:20:48.081Z,1016.53
2023-05-21T05:21:48.024Z,1016.48
2023-05-21T05:22:47.958Z,1016.45
2023-05-21T05:23:47.886Z,1016.42
2023-05-21T05:24:47.831Z,1016.44
2023-05-21T05:25:47.770Z,1016.46
2023-05-21T05:26:47.727Z,1016.49
2023-05-21T05:27:47.640Z,1016.44
2023-05-21T05:28:47.603Z,1016.44
2023-05-21T05:29:47.516Z,1016.38
2023-05-21T05:30:47.498Z,1016.44
2023-05-21T05:31:47.422Z,1016.42
2023-05-21T05:32:47.359Z,1016.44
2023-05-21T05:33:47.363Z,1016.43
2023-05-21T05:34:47.212Z,1016.45
2023-05-21T05:35:47.176Z,1016.45
2023-05-21T05:36:47.105Z,1016.46
2023-05-21T05:37:47.012Z,1016.45
2023-05-21T05:38:47.016Z,1016.46
2023-05-21T05:39:46.896Z,1016.48
2023-05-21T05:40:46.827Z,1016.48
2023-05-21T05:41:46.801Z,1016.45
2023-05-21T05:42:46.749Z,1016.44
2023-05-21T05:43:46.647Z,1016.46
2023-05-21T05:44:46.576Z,1016.43
2023-05-21T05:45:46.511Z,1016.48
2023-05-21T05:46:46.511Z,1016.51
2023-05-21T05:47:46.432Z,1016.44
2023-05-21T05:48:46.349Z,1016.48
2023-05-21T05:49:46.281Z,1016.50
2023-05-21T05:50:46.205Z,1016.47
2023-05-21T05:51:46.138Z,1016.49
2023-05-21T05:52:46.081Z,1016.49
2023-05-21T05:53:46.010Z,1016.47
2023-05-21T05:54:45.959Z,1016.49
2023-05-21T05:55:45.882Z,1016.40
2023-05-21T05:56:45.840Z,1016.35
2023-05-21T05:57:45.769Z,1016.42
2023-05-21T05:58:45.715Z,1016.37
2023-05-21T05:59:45.648Z,1016.42
2023-05-21T06:00:45.590Z,1016.34
2023-05-21T06:01:45.509Z,1016.35
2023-05-21T06:02:45.550Z,1016.31
2023-05-21T06:03:45.510Z,1016.42
2023-05-21T06:04:45.332Z,1016.36
2023-05-21T06:05:45.290Z,1016.41
2023-05-21T06:06:45.229Z,1016.41
2023-05-21T06:07:45.156Z,1016.39
2023-05-21T06:08:45.074Z,1016.37
2023-05-21T06:09:45.015Z,1016.40
2023-05-21T06:10:44.980Z,1016.41
2023-05-21T06:11:44.941Z,1016.40
2023-05-21T06:12:44.828Z,1016.38
2023-05-21T06:13:44.772Z,1016.41
2023-05-21T06:14:45.227Z,1016.41
2023-05-21T06:15:44.696Z,1016.42
2023-05-21T06:16:44.619Z,1016.37
2023-05-21T06:17:44.651Z,1016.41
2023-05-21T06:18:44.472Z,1016.30
2023-05-21T06:19:44.391Z,1016.34
2023-05-21T06:20:44.345Z,1016.35
2023-05-21T06:21:44.274Z,1016.34
2023-05-21T06:22:44.209Z,1016.28
2023-05-21T06:23:44.151Z,1016.29
2023-05-21T06:24:44.095Z,1016.34
2023-05-21T06:25:44.034Z,1016.34
2023-05-21T06:26:43.954Z,1016.38
2023-05-21T06:27:43.891Z,1016.32
2023-05-21T06:28:43.821Z,1016.34
2023-05-21T06:29:43.762Z,1016.37
2023-05-21T06:30:43.710Z,1016.36
2023-05-21T06:31:43.637Z,1016.37
2023-05-21T06:32:43.707Z,1016.37
2023-05-21T06:33:43.636Z,1016.37
2023-05-21T06:34:43.475Z,1016.36
2023-05-21T06:35:43.402Z,1016.35
2023-05-21T06:36:43.349Z,1016.33
2023-05-21T06:37:43.272Z,1016.30
2023-05-21T06:38:43.227Z,1016.34
2023-05-21T06:39:43.164Z,1016.27
2023-05-21T06:40:43.089Z,1016.32
2023-05-21T06:41:43.036Z,1016.30
2023-05-21T06:42:42.967Z,1016.34
2023-05-21T06:43:42.902Z,1016.34
2023-05-21T06:44:42.849Z,1016.30
2023-05-21T06:45:42.823Z,1016.29
2023-05-21T06:46:42.732Z,1016.26
2023-05-21T06:47:42.709Z,1016.27
2023-05-21T06:48:42.592Z,1016.27
2023-05-21T06:49:42.547Z,1016.27
2023-05-21T06:50:42.489Z,1016.29
2023-05-21T06:51:42.429Z,1016.30
2023-05-21T06:52:42.361Z,1016.30
2023-05-21T06:53:42.277Z,1016.26
2023-05-21T06:54:42.238Z,1016.28
2023-05-21T06:55:42.180Z,1016.28
2023-05-21T06:56:42.088Z,1016.25
2023-05-21T06:57:42.025Z,1016.22
2023-05-21T06:58:41.962Z,1016.23
2023-05-21T06:59:41.920Z,1016.24
2023-05-21T07:00:41.833Z,1016.21
2023-05-21T07:01:41.858Z,1016.19
2023-05-21T07:02:41.778Z,1016.15
2023-05-21T07:03:41.719Z,1016.22
2023-05-21T07:04:41.666Z,1016.18
2023-05-21T07:05:41.537Z,1016.18
2023-05-21T07:06:41.472Z,1016.25
2023-05-21T07:07:41.416Z,1016.21
2023-05-21T07:08:41.350Z,1016.21
2023-05-21T07:09:41.298Z,1016.23
2023-05-21T07:10:41.250Z,1016.23
2023-05-21T07:11:41.160Z,1016.23
2023-05-21T07:12:41.116Z,1016.19
2023-05-21T07:13:41.072Z,1016.24
2023-05-21T07:14:40.987Z,1016.24
2023-05-21T07:15:40.919Z,1016.21
2023-05-21T07:16:40.941Z,1016.21
2023-05-21T07:17:40.847Z,1016.20
2023-05-21T07:18:40.746Z,1016.19
2023-05-21T07:19:40.721Z,1016.20
2023-05-21T07:20:40.639Z,1016.22
2023-05-21T07:21:40.549Z,1016.22
2023-05-21T07:22:40.509Z,1016.20
2023-05-21T07:23:40.457Z,1016.22
2023-05-21T07:24:40.377Z,1016.22
2023-05-21T07:25:40.333Z,1016.22
2023-05-21T07:26:40.234Z,1016.21
2023-05-21T07:27:40.201Z,1016.19
2023-05-21T07:28:40.114Z,1016.17
2023-05-21T07:29:40.065Z,1016.22
2023-05-21T07:30:40.019Z,1016.17
2023-05-21T07:31:40.126Z,1016.23
2023-05-21T07:32:39.935Z,1016.22
2023-05-21T07:33:39.854Z,1016.19
2023-05-21T07:34:39.765Z,1016.21
2023-05-21T07:35:39.696Z,1016.17
2023-05-21T07:36:39.634Z,1016.17
2023-05-21T07:37:39.625Z,1016.22
2023-05-21T07:38:39.536Z,1016.15
2023-05-21T07:39:39.479Z,1016.17
2023-05-21T07:40:39.391Z,1016.14
2023-05-21T07:41:39.367Z,1016.17
2023-05-21T07:42:39.260Z,1016.19
2023-05-21T07:43:39.216Z,1016.15
2023-05-21T07:44:39.178Z,1016.15
2023-05-21T07:45:39.272Z,1016.16
2023-05-21T07:46:39.056Z,1016.15
2023-05-21T07:47:38.987Z,1016.17
2023-05-21T07:48:38.939Z,1016.13
2023-05-21T07:49:38.840Z,1016.13
2023-05-21T07:50:38.804Z,1016.12
2023-05-21T07:51:38.727Z,1016.15
2023-05-21T07:52:38.666Z,1016.16
2023-05-21T07:53:38.591Z,1016.14
2023-05-21T07:54:38.527Z,1016.10
2023-05-21T07:55:38.688Z,1016.10
2023-05-21T07:56:38.405Z,1016.09
2023-05-21T07:57:38.346Z,1016.07
2023-05-21T07:58:38.299Z,1016.03
2023-05-21T07:59:38.261Z,1016.06
2023-05-21T08:00:38.204Z,1016.02
2023-05-21T08:01:38.095Z,1015.98
2023-05-21T08:02:38.106Z,1015.99
2023-05-21T08:03:38.135Z,1015.96
2023-05-21T08:04:40.692Z,1015.93
2023-05-21T08:05:38.142Z,1015.96
2023-05-21T08:06:37.798Z,1016.00
2023-05-21T08:07:37.756Z,1015.96
2023-05-21T08:08:37.669Z,1015.98
2023-05-21T08:09:37.736Z,1015.97
2023-05-21T08:10:37.548Z,1015.95
2023-05-21T08:11:37.502Z,1015.93
2023-05-21T08:12:37.446Z,1015.98
2023-05-21T08:13:37.473Z,1015.97
2023-05-21T08:14:37.303Z,1015.94
2023-05-21T08:15:37.433Z,1015.92
2023-05-21T08:16:37.256Z,1015.98
2023-05-21T08:17:37.171Z,1015.97
2023-05-21T08:18:37.061Z,1015.94
2023-05-21T08:19:37.072Z,1015.98
2023-05-21T08:20:36.936Z,1015.98
2023-05-21T08:21:36.890Z,1015.97
2023-05-21T08:22:36.820Z,1015.99
2023-05-21T08:23:36.771Z,1015.97
2023-05-21T08:24:36.709Z,1015.98
2023-05-21T08:25:37.037Z,1015.98
2023-05-21T08:26:36.574Z,1015.95
2023-05-21T08:27:36.530Z,1015.97
2023-05-21T08:28:36.441Z,1015.96
2023-05-21T08:29:36.382Z,1015.94
2023-05-21T08:30:36.323Z,1015.94
2023-05-21T08:31:36.307Z,1015.96
2023-05-21T08:32:36.233Z,1016.00
2023-05-21T08:33:36.167Z,1015.96
2023-05-21T08:34:36.112Z,1015.95
2023-05-21T08:35:36.237Z,1015.98
2023-05-21T08:36:35.960Z,1016.01
2023-05-21T08:37:35.912Z,1015.99
2023-05-21T08:38:35.852Z,1015.99
2023-05-21T08:39:35.831Z,1016.01
2023-05-21T08:40:35.809Z,1016.02
2023-05-21T08:41:35.667Z,1016.03
2023-05-21T08:42:37.432Z,1016.03
2023-05-21T08:43:35.594Z,1016.04
2023-05-21T08:44:35.477Z,1016.02
2023-05-21T08:45:35.579Z,1016.06
2023-05-21T08:46:35.351Z,1016.03
2023-05-21T08:47:35.362Z,1016.02
2023-05-21T08:48:35.235Z,1016.10
2023-05-21T08:49:35.185Z,1016.06
2023-05-21T08:50:35.108Z,1016.00
2023-05-21T08:51:35.058Z,1016.02
2023-05-21T08:52:34.986Z,1015.99
2023-05-21T08:53:34.951Z,1015.98
2023-05-21T08:54:34.871Z,1016.01
2023-05-21T08:55:34.984Z,1016.04
2023-05-21T08:56:34.803Z,1016.03
2023-05-21T08:57:34.691Z,1016.03
2023-05-21T08:58:34.626Z,1016.03
2023-05-21T08:59:34.606Z,1015.99
2023-05-21T09:00:34.516Z,1016.03
2023-05-21T09:01:34.476Z,1015.95
2023-05-21T09:02:34.514Z,1015.96
2023-05-21T09:03:34.377Z,1015.93
2023-05-21T09:04:34.313Z,1015.90
2023-05-21T09:05:34.245Z,1015.94
2023-05-21T09:06:34.149Z,1015.89
2023-05-21T09:07:34.087Z,1015.91
2023-05-21T09:08:34.033Z,1015.90
2023-05-21T09:09:33.963Z,1015.90
2023-05-21T09:10:33.926Z,1015.89
2023-05-21T09:11:33.888Z,1015.94
2023-05-21T09:12:33.802Z,1015.92
2023-05-21T09:13:33.733Z,1015.92
2023-05-21T09:14:33.685Z,1015.91
2023-05-21T09:15:33.654Z,1015.96
2023-05-21T09:16:33.609Z,1015.91
2023-05-21T09:17:33.514Z,1015.89
2023-05-21T09:18:33.411Z,1015.88
2023-05-21T09:19:33.453Z,1015.87
2023-05-21T09:20:52.873Z,1015.95
2023-05-21T09:21:52.842Z,1015.82
2023-05-21T09:22:52.669Z,1017.85
2023-05-21T09:23:52.654Z,1015.86
2023-05-21T09:26:12.696Z,1015.98
2023-05-21T09:27:12.591Z,1015.94
2023-05-21T09:28:12.530Z,1015.96
2023-05-21T09:29:12.485Z,1015.98
2023-05-21T09:30:12.411Z,1015.97
2023-05-21T09:31:12.420Z,1015.95
2023-05-21T09:32:12.300Z,1015.94
2023-05-21T09:33:12.325Z,1015.94
2023-05-21T09:34:12.192Z,1015.91
2023-05-21T09:35:12.135Z,1015.96
2023-05-21T09:36:12.061Z,1015.96
2023-05-21T09:37:23.820Z,1015.95
2023-05-21T09:38:11.938Z,1015.97
2023-05-21T09:39:11.869Z,1015.93
2023-05-21T09:40:11.822Z,1015.95
2023-05-21T09:41:11.760Z,1015.93
2023-05-21T09:42:11.728Z,1015.96
2023-05-21T09:43:11.704Z,1015.94
2023-05-21T09:44:11.599Z,1015.84
2023-05-21T09:45:11.528Z,1015.90
2023-05-21T09:46:11.510Z,1015.87
2023-05-21T09:47:11.410Z,1015.91
2023-05-21T09:48:11.355Z,1015.91
2023-05-21T09:49:11.296Z,1015.89
2023-05-21T09:50:11.263Z,1015.84
2023-05-21T09:51:11.177Z,1015.85
2023-05-21T09:52:11.162Z,1015.88
2023-05-21T09:53:11.115Z,1015.85
2023-05-21T09:54:11.027Z,1015.90
2023-05-21T09:55:10.990Z,1015.83
2023-05-21T09:56:10.965Z,1015.82
2023-05-21T09:57:10.854Z,1015.92
2023-05-21T09:58:10.798Z,1015.86
2023-05-21T09:59:10.734Z,1015.87
2023-05-21T10:00:10.701Z,1015.83
2023-05-21T10:01:10.642Z,1015.79
2023-05-21T10:02:10.717Z,1015.74
2023-05-21T10:03:10.579Z,1015.86
2023-05-21T10:04:10.512Z,1015.86
2023-05-21T10:05:10.407Z,1015.79
2023-05-21T10:06:10.342Z,1015.80
2023-05-21T10:07:10.273Z,1015.84
2023-05-21T10:08:10.226Z,1015.81
2023-05-21T10:09:10.172Z,1015.75
2023-05-21T10:10:10.115Z,1015.71
2023-05-21T10:11:10.057Z,1015.71
2023-05-21T10:12:10.041Z,1015.69
2023-05-21T10:13:09.960Z,1015.63
2023-05-21T10:14:09.884Z,1015.69
2023-05-21T10:15:09.915Z,1015.67
2023-05-21T10:16:09.838Z,1015.65
2023-05-21T10:17:09.758Z,1015.63
2023-05-21T10:18:09.716Z,1015.63
2023-05-21T10:19:09.648Z,1015.64
2023-05-21T10:20:09.550Z,1015.60
2023-05-21T10:21:09.514Z,1015.65
2023-05-21T10:22:09.456Z,1015.58
2023-05-21T10:23:09.386Z,1015.53
2023-05-21T10:24:09.329Z,1015.52
2023-05-21T10:25:09.290Z,1015.55
2023-05-21T10:26:09.229Z,1015.59
2023-05-21T10:27:09.163Z,1015.51
2023-05-21T10:28:09.190Z,1015.59
2023-05-21T10:29:09.214Z,1015.55
2023-05-21T10:30:08.998Z,1015.54
2023-05-21T10:31:08.966Z,1015.51
2023-05-21T10:32:08.987Z,1015.48
2023-05-21T10:33:08.938Z,1015.52
2023-05-21T10:34:08.786Z,1015.49
2023-05-21T10:35:08.716Z,1015.55
2023-05-21T10:36:08.662Z,1015.44
2023-05-21T10:37:08.597Z,1015.52
2023-05-21T10:38:08.595Z,1015.54
2023-05-21T10:39:08.539Z,1015.47
2023-05-21T10:40:08.442Z,1015.40
2023-05-21T10:41:08.371Z,1015.42
2023-05-21T10:42:08.364Z,1015.39
2023-05-21T10:43:08.266Z,1015.43
2023-05-21T10:44:08.223Z,1015.49
2023-05-21T10:45:08.163Z,1015.46
2023-05-21T10:46:08.191Z,1015.44
2023-05-21T10:47:08.053Z,1015.42
2023-05-21T10:48:08.087Z,1015.38
2023-05-21T10:49:07.952Z,1015.45
2023-05-21T10:50:07.890Z,1015.43
2023-05-21T10:51:07.820Z,1015.35
2023-05-21T10:52:07.775Z,1015.43
2023-05-21T10:53:09.904Z,1015.43
2023-05-21T10:54:07.664Z,1015.39
2023-05-21T10:55:07.654Z,1015.39
2023-05-21T10:56:07.555Z,1015.40
2023-05-21T10:57:07.505Z,1015.34
2023-05-21T10:58:07.433Z,1015.46
2023-05-21T10:59:07.392Z,1015.31
2023-05-21T11:00:07.359Z,1015.37
2023-05-21T11:01:07.377Z,1015.38
2023-05-21T11:02:07.338Z,1015.32
2023-05-21T11:03:07.268Z,1015.31
2023-05-21T11:04:07.114Z,1015.33
2023-05-21T11:05:07.080Z,1015.37
2023-05-21T11:06:07.074Z,1015.30
2023-05-21T11:07:06.973Z,1015.39
2023-05-21T11:08:06.972Z,1015.35
2023-05-21T11:09:06.865Z,1015.34
2023-05-21T11:10:06.800Z,1015.29
2023-05-21T11:11:06.784Z,1015.26
2023-05-21T11:12:06.717Z,1015.33
2023-05-21T11:13:06.710Z,1015.35
2023-05-21T11:14:06.599Z,1015.37
2023-05-21T11:15:06.567Z,1015.32
2023-05-21T11:16:06.506Z,1015.34
2023-05-21T11:17:06.509Z,1015.39
2023-05-21T11:18:06.438Z,1015.33
2023-05-21T11:19:06.376Z,1015.34
2023-05-21T11:20:06.355Z,1015.30
2023-05-21T11:21:06.272Z,1015.26
2023-05-21T11:22:06.311Z,1015.21
2023-05-21T11:23:06.150Z,1015.29
2023-05-21T11:24:06.101Z,1015.28
2023-05-21T11:25:06.025Z,1015.35
2023-05-21T11:26:06.108Z,1015.25
2023-05-21T11:27:05.952Z,1015.29
2023-05-21T11:28:05.898Z,1015.21
2023-05-21T11:29:05.823Z,1015.28
2023-05-21T11:30:05.774Z,1015.23
2023-05-21T11:31:05.734Z,1015.19
2023-05-21T11:32:05.713Z,1015.22
2023-05-21T11:33:05.689Z,1015.29
2023-05-21T11:34:05.593Z,1015.23
2023-05-21T11:35:05.561Z,1015.21
2023-05-21T11:36:05.483Z,1015.17
2023-05-21T11:37:05.441Z,1015.24
2023-05-21T11:38:05.572Z,1015.17
2023-05-21T11:39:05.367Z,1015.22
2023-05-21T11:40:05.326Z,1015.21
2023-05-21T11:41:05.429Z,1015.17
2023-05-21T11:42:05.214Z,1015.25
2023-05-21T11:43:05.140Z,1015.30
2023-05-21T11:44:05.125Z,1015.41
2023-05-21T11:45:05.033Z,1015.35
2023-05-21T11:46:05.055Z,1015.28
2023-05-21T11:47:04.988Z,1015.37
2023-05-21T11:48:04.961Z,1015.28
2023-05-21T11:49:04.847Z,1015.26
2023-05-21T11:50:04.873Z,1015.30
2023-05-21T11:51:04.785Z,1015.36
2023-05-21T11:52:04.698Z,1015.34
2023-05-21T11:53:04.651Z,1015.28
2023-05-21T11:54:04.630Z,1015.33
2023-05-21T11:55:04.547Z,1015.33
2023-05-21T11:56:04.602Z,1015.39
2023-05-21T11:57:04.456Z,1015.35
2023-05-21T11:58:04.404Z,1015.28
2023-05-21T11:59:04.430Z,1015.32
2023-05-21T12:00:04.316Z,1015.29
2023-05-21T12:01:04.254Z,1015.25
2023-05-21T12:02:04.367Z,1015.27
2023-05-21T12:03:04.216Z,1015.23
2023-05-21T12:04:04.166Z,1015.30
2023-05-21T12:05:04.062Z,1015.24
2023-05-21T12:06:04.078Z,1015.22